createdAt,value
2023-02-27T00:00:38.723Z,9.5
2023-02-27T00:02:38.437Z,11.2
2023-02-27T00:04:37.989Z,11.3
2023-02-27T00:06:37.940Z,10
2023-02-27T00:08:37.765Z,9.4
2023-02-27T00:10:37.784Z,9.8
2023-02-27T00:12:37.477Z,9.9
2023-02-27T00:14:37.293Z,10.7
2023-02-27T00:16:37.046Z,9.8
2023-02-27T00:18:37.105Z,9.2
2023-02-27T00:20:36.742Z,9
2023-02-27T00:22:36.769Z,9.6
2023-02-27T00:24:36.540Z,8.9
2023-02-27T00:26:37.020Z,10
2023-02-27T00:28:37.479Z,9.8
2023-02-27T00:30:36.489Z,9.1
2023-02-27T00:32:36.110Z,10.5
2023-02-27T00:34:35.894Z,10.4
2023-02-27T00:36:36.046Z,9.7
2023-02-27T00:38:35.785Z,8.7
2023-02-27T00:40:36.085Z,9
2023-02-27T00:42:35.815Z,9.6
2023-02-27T00:44:35.191Z,11.3
2023-02-27T00:46:35.065Z,10
2023-02-27T00:48:35.281Z,9.8
2023-02-27T00:50:34.820Z,11.3
2023-02-27T00:52:34.741Z,9.4
2023-02-27T00:54:34.759Z,10.4
2023-02-27T00:56:34.431Z,10.2
2023-02-27T00:58:34.355Z,10.8
2023-02-27T01:00:34.345Z,9.7
2023-02-27T01:02:34.476Z,12.4
2023-02-27T01:04:34.134Z,11
2023-02-27T01:06:33.863Z,10
2023-02-27T01:08:33.714Z,10.2
2023-02-27T01:10:33.806Z,10.5
2023-02-27T01:12:33.666Z,9.2
2023-02-27T01:14:33.744Z,9.9
2023-02-27T01:16:33.245Z,10.5
2023-02-27T01:18:33.120Z,10.4
2023-02-27T01:20:32.880Z,10
2023-02-27T01:22:32.858Z,8.5
2023-02-27T01:24:32.940Z,10.6
2023-02-27T01:26:34.589Z,9.3
2023-02-27T01:28:32.459Z,9.4
2023-02-27T01:30:32.403Z,10
2023-02-27T01:32:32.300Z,9.6
2023-02-27T01:34:34.168Z,9.8
2023-02-27T01:36:31.892Z,10
2023-02-27T01:38:34.184Z,10.2
2023-02-27T01:40:35.916Z,9.3
2023-02-27T01:42:32.154Z,8.8
2023-02-27T01:45:01.100Z,9.7
2023-02-27T01:46:33.068Z,8.5
2023-02-27T01:48:34.093Z,8.4
2023-02-27T01:50:32.861Z,11.2
2023-02-27T01:52:33.192Z,11.3
2023-02-27T01:54:37.934Z,11.6
2023-02-27T01:56:32.070Z,12.1
2023-02-27T01:58:30.948Z,9.8
2023-02-27T02:00:30.711Z,9.9
2023-02-27T02:02:37.003Z,11.9
2023-02-27T02:04:34.377Z,9
2023-02-27T02:06:33.655Z,9.1
2023-02-27T02:08:33.845Z,10.3
2023-02-27T02:10:30.502Z,8.9
2023-02-27T02:12:33.042Z,10
2023-02-27T02:14:29.727Z,9.9
2023-02-27T02:16:41.195Z,9.7
2023-02-27T02:18:39.489Z,9.9
2023-02-27T02:20:54.502Z,10.3
2023-02-27T02:22:53.599Z,11.7
2023-02-27T02:24:49.492Z,10.5
2023-02-27T02:26:48.664Z,12.2
2023-02-27T02:28:59.950Z,11.2
2023-02-27T02:30:57.738Z,10.8
2023-02-27T02:32:57.661Z,10.2
2023-02-27T02:34:57.307Z,10.5
2023-02-27T02:36:55.811Z,10.6
2023-02-27T02:38:57.325Z,9.7
2023-02-27T02:40:35.716Z,11.8
2023-02-27T02:42:36.412Z,12
2023-02-27T02:44:39.959Z,11
2023-02-27T02:46:35.633Z,11.7
2023-02-27T02:48:33.329Z,10.5
2023-02-27T02:50:34.534Z,10
2023-02-27T02:52:37.764Z,12
2023-02-27T02:54:36.760Z,12.9
2023-02-27T02:56:34.433Z,11.1
2023-02-27T02:58:33.490Z,12.4
2023-02-27T03:00:32.139Z,12.1
2023-02-27T03:02:30.639Z,13.1
2023-02-27T03:04:31.206Z,12.7
2023-02-27T03:06:30.965Z,13.1
2023-02-27T03:08:30.354Z,12.2
2023-02-27T03:10:29.398Z,10.3
2023-02-27T03:12:29.409Z,11.7
2023-02-27T03:14:31.754Z,10.5
2023-02-27T03:16:30.500Z,10.6
2023-02-27T03:18:31.807Z,11.2
2023-02-27T03:20:31.150Z,13.3
2023-02-27T03:22:31.570Z,10.9
2023-02-27T03:24:31.563Z,10.8
2023-02-27T03:26:31.130Z,13.3
2023-02-27T03:28:31.034Z,13.4
2023-02-27T03:30:32.258Z,10.4
2023-02-27T03:32:30.614Z,13.4
2023-02-27T03:34:31.511Z,11
2023-02-27T03:36:33.357Z,11.8
2023-02-27T03:38:32.890Z,12.8
2023-02-27T03:40:32.032Z,12.9
2023-02-27T03:42:42.476Z,12.2
2023-02-27T03:44:31.903Z,13.6
2023-02-27T03:46:27.364Z,12
2023-02-27T03:48:23.491Z,12.5
2023-02-27T03:50:23.441Z,12.1
2023-02-27T03:52:25.371Z,11.3
2023-02-27T03:54:29.245Z,12.9
2023-02-27T03:56:28.189Z,12.3
2023-02-27T03:58:23.075Z,11.1
2023-02-27T04:00:24.594Z,11.8
2023-02-27T04:02:22.692Z,11.7
2023-02-27T04:04:45.274Z,13.9
2023-02-27T04:06:23.076Z,14
2023-02-27T04:08:39.499Z,10.7
2023-02-27T04:10:36.857Z,11.7
2023-02-27T04:12:40.832Z,12
2023-02-27T04:14:35.795Z,11.4
2023-02-27T04:16:39.818Z,10.9
2023-02-27T04:18:29.915Z,13.5
2023-02-27T04:20:32.057Z,13.3
2023-02-27T04:22:31.962Z,11.9
2023-02-27T04:24:34.825Z,12
2023-02-27T04:26:27.325Z,12.4
2023-02-27T04:28:29.301Z,12.3
2023-02-27T04:30:27.584Z,20.3
2023-02-27T04:32:30.525Z,13.4
2023-02-27T04:34:26.532Z,12.5
2023-02-27T04:36:27.200Z,14.3
2023-02-27T04:38:25.651Z,16.7
2023-02-27T04:40:23.278Z,14.7
2023-02-27T04:42:22.421Z,14.6
2023-02-27T04:44:21.721Z,15.3
2023-02-27T04:46:23.197Z,10.7
2023-02-27T04:48:23.086Z,16.3
2023-02-27T04:50:25.455Z,14
2023-02-27T04:52:22.860Z,10.6
2023-02-27T04:54:24.464Z,11.7
2023-02-27T04:56:23.718Z,10.5
2023-02-27T04:58:21.323Z,14.2
2023-02-27T05:00:22.995Z,11.7
2023-02-27T05:02:21.320Z,10.5
2023-02-27T05:04:20.994Z,10.8
2023-02-27T05:06:22.876Z,9.9
2023-02-27T05:08:25.594Z,11.2
2023-02-27T05:10:27.959Z,10.8
2023-02-27T05:12:22.339Z,11.3
2023-02-27T05:14:21.230Z,11.2
2023-02-27T05:16:22.605Z,12
2023-02-27T05:18:19.680Z,11.4
2023-02-27T05:20:17.736Z,13.2
2023-02-27T05:22:27.277Z,11.4
2023-02-27T05:24:24.747Z,9.8
2023-02-27T05:26:20.369Z,10.4
2023-02-27T05:28:20.603Z,8.8
2023-02-27T05:30:23.294Z,10.8
2023-02-27T05:32:27.372Z,13.4
2023-02-27T05:34:23.316Z,11.6
2023-02-27T05:36:21.230Z,11.2
2023-02-27T05:38:21.281Z,14.7
2023-02-27T05:40:21.239Z,13.1
2023-02-27T05:42:19.210Z,13.5
2023-02-27T05:44:18.243Z,12.4
2023-02-27T05:46:19.946Z,11.9
2023-02-27T05:48:19.841Z,11.7
2023-02-27T05:50:19.260Z,10.6
2023-02-27T05:52:18.062Z,15.2
2023-02-27T05:54:22.062Z,15.7
2023-02-27T05:56:18.714Z,12.4
2023-02-27T05:58:20.079Z,12.1
2023-02-27T06:00:19.348Z,11.9
2023-02-27T06:02:13.588Z,13.4
2023-02-27T06:04:13.539Z,12.7
2023-02-27T06:06:16.087Z,11.9
2023-02-27T06:08:12.966Z,12.8
2023-02-27T06:10:15.028Z,13.3
2023-02-27T06:12:12.913Z,13.1
2023-02-27T06:14:12.542Z,11.6
2023-02-27T06:16:14.395Z,13.8
2023-02-27T06:18:12.889Z,13.7
2023-02-27T06:20:12.508Z,12
2023-02-27T06:22:11.841Z,13.1
2023-02-27T06:24:11.745Z,13.8
2023-02-27T06:26:11.653Z,14
2023-02-27T06:28:11.457Z,15.4
2023-02-27T06:30:12.154Z,13
2023-02-27T06:32:11.182Z,12.6
2023-02-27T06:34:11.169Z,13.9
2023-02-27T06:36:10.889Z,13.6
2023-02-27T06:38:10.794Z,14.2
2023-02-27T06:40:11.281Z,13
2023-02-27T06:42:10.279Z,14.2
2023-02-27T06:44:10.083Z,16.3
2023-02-27T06:46:09.954Z,13.4
2023-02-27T06:48:09.793Z,13.1
2023-02-27T06:50:13.119Z,13.3
2023-02-27T06:52:09.694Z,12.6
2023-02-27T06:54:09.335Z,13.8
2023-02-27T06:56:09.200Z,12.1
2023-02-27T06:58:09.046Z,15.5
2023-02-27T07:00:10.460Z,11.8
2023-02-27T07:02:10.402Z,12.3
2023-02-27T07:04:12.003Z,12.6
2023-02-27T07:06:08.576Z,11.1
2023-02-27T07:08:08.842Z,13.1
2023-02-27T07:10:11.222Z,16.6
2023-02-27T07:12:08.573Z,14.2
2023-02-27T07:14:07.861Z,13.8
2023-02-27T07:16:08.110Z,11.1
2023-02-27T07:18:07.417Z,11.7
2023-02-27T07:20:10.189Z,11.9
2023-02-27T07:22:07.298Z,12.5
2023-02-27T07:24:07.351Z,10.6
2023-02-27T07:26:07.082Z,11.8
2023-02-27T07:28:06.890Z,13.1
2023-02-27T07:30:08.202Z,11.8
2023-02-27T07:32:06.616Z,10.7
2023-02-27T07:34:06.585Z,11.3
2023-02-27T07:36:07.324Z,10.3
2023-02-27T07:38:06.041Z,11.5
2023-02-27T07:40:07.203Z,11
2023-02-27T07:42:07.280Z,11
2023-02-27T07:44:05.863Z,10.7
2023-02-27T07:46:05.612Z,11
2023-02-27T07:48:05.963Z,10.2
2023-02-27T07:50:05.968Z,13.2
2023-02-27T07:52:05.136Z,10.3
2023-02-27T07:54:05.308Z,9.9
2023-02-27T07:56:05.519Z,9.6
2023-02-27T07:58:05.056Z,10.3
2023-02-27T08:00:12.424Z,11.8
2023-02-27T08:02:04.517Z,17.4
2023-02-27T08:04:04.469Z,10.9
2023-02-27T08:06:04.666Z,9
2023-02-27T08:08:04.323Z,11.8
2023-02-27T08:10:05.101Z,10.5
2023-02-27T08:12:04.362Z,11.1
2023-02-27T08:14:04.078Z,10.4
2023-02-27T08:16:04.350Z,12
2023-02-27T08:18:03.769Z,15.6
2023-02-27T08:20:04.669Z,12.2
2023-02-27T08:22:03.534Z,9.9
2023-02-27T08:24:03.570Z,9.5
2023-02-27T08:26:03.356Z,9.6
2023-02-27T08:28:03.480Z,10
2023-02-27T08:30:03.696Z,11.2
2023-02-27T08:32:03.884Z,12.7
2023-02-27T08:34:10.214Z,11
2023-02-27T08:36:02.964Z,12.6
2023-02-27T08:38:02.481Z,18.3
2023-02-27T08:40:02.638Z,14.7
2023-02-27T08:42:02.274Z,17
2023-02-27T08:44:02.375Z,11.6
2023-02-27T08:46:02.052Z,11.6
2023-02-27T08:48:02.317Z,12.3
2023-02-27T08:50:01.994Z,11.1
2023-02-27T08:52:01.884Z,12.4
2023-02-27T08:54:01.683Z,10.7
2023-02-27T08:56:01.511Z,17.8
2023-02-27T08:58:01.419Z,9.8
2023-02-27T09:00:01.832Z,10.5
2023-02-27T09:02:01.233Z,12.9
2023-02-27T09:04:02.170Z,9.6
2023-02-27T09:06:01.081Z,10.2
2023-02-27T09:08:01.107Z,11.7
2023-02-27T09:10:00.740Z,12
2023-02-27T09:12:00.688Z,10.6
2023-02-27T09:14:00.894Z,11.1
2023-02-27T09:16:00.347Z,10.9
2023-02-27T09:18:00.264Z,11.6
2023-02-27T09:20:00.294Z,8.4
2023-02-27T09:21:59.997Z,10.2
2023-02-27T09:24:10.136Z,11.6
2023-02-27T09:25:59.772Z,10.5
2023-02-27T09:27:59.602Z,16.5
2023-02-27T09:29:59.452Z,8.8
2023-02-27T09:31:59.876Z,10
2023-02-27T09:33:59.292Z,9.5
2023-02-27T09:35:59.191Z,7.5
2023-02-27T09:37:59.054Z,7.9
2023-02-27T09:39:58.870Z,12.6
2023-02-27T09:42:02.704Z,8.5
2023-02-27T09:43:58.851Z,9.6
2023-02-27T09:46:00.446Z,8.4
2023-02-27T09:48:03.481Z,8.8
2023-02-27T09:50:01.746Z,7.9
2023-02-27T09:51:58.440Z,10.3
2023-02-27T09:54:00.515Z,12.7
2023-02-27T09:56:04.783Z,11
2023-02-27T09:58:03.988Z,9.5
2023-02-27T10:00:07.708Z,10.2
2023-02-27T10:02:04.673Z,7.7
2023-02-27T10:04:16.903Z,8
2023-02-27T10:06:12.628Z,6.6
2023-02-27T10:08:08.320Z,8.7
2023-02-27T10:10:07.089Z,7.3
2023-02-27T10:12:07.429Z,6.2
2023-02-27T10:14:03.265Z,8.7
2023-02-27T10:15:58.835Z,9.7
2023-02-27T10:18:07.093Z,8.5
2023-02-27T10:19:58.326Z,8.2
2023-02-27T10:21:59.004Z,9.9
2023-02-27T10:24:01.011Z,8.8
2023-02-27T10:25:56.243Z,7.1
2023-02-27T10:28:01.595Z,9.2
2023-02-27T10:30:11.140Z,6.2
2023-02-27T10:32:01.606Z,5.5
2023-02-27T10:33:56.265Z,6.2
2023-02-27T10:35:55.169Z,9.1
2023-02-27T10:37:59.166Z,6.7
2023-02-27T10:39:59.425Z,7.2
2023-02-27T10:41:59.045Z,5
2023-02-27T10:43:59.100Z,7.3
2023-02-27T10:45:54.523Z,9.4
2023-02-27T10:47:54.203Z,6.2
2023-02-27T10:49:54.779Z,6.1
2023-02-27T10:52:09.680Z,8.3
2023-02-27T10:54:14.444Z,6
2023-02-27T10:56:03.264Z,6.5
2023-02-27T10:57:55.863Z,5.4
2023-02-27T10:59:56.953Z,12.4
2023-02-27T11:01:56.630Z,6.3
2023-02-27T11:03:56.222Z,4.9
2023-02-27T11:05:55.852Z,6.2
2023-02-27T11:07:53.749Z,9.7
2023-02-27T11:10:01.056Z,12.8
2023-02-27T11:11:53.135Z,7.4
2023-02-27T11:13:52.426Z,6.6
2023-02-27T11:16:03.983Z,4.9
2023-02-27T11:17:52.167Z,5.4
2023-02-27T11:19:51.794Z,6.6
2023-02-27T11:22:07.257Z,5
2023-02-27T11:23:56.466Z,6.8
2023-02-27T11:26:06.485Z,4.9
2023-02-27T11:27:51.353Z,9.5
2023-02-27T11:29:59.640Z,6
2023-02-27T11:31:53.983Z,6.2
2023-02-27T11:33:55.092Z,6.4
2023-02-27T11:35:57.247Z,4.9
2023-02-27T11:37:52.768Z,5.7
2023-02-27T11:39:56.418Z,5.5
2023-02-27T11:41:51.222Z,4.9
2023-02-27T11:43:52.873Z,4
2023-02-27T11:46:05.291Z,4.9
2023-02-27T11:47:56.317Z,5.6
2023-02-27T11:50:26.269Z,6
2023-02-27T11:51:58.306Z,4.9
2023-02-27T11:54:06.800Z,5.7
2023-02-27T11:55:53.022Z,5.5
2023-02-27T11:57:54.791Z,7.3
2023-02-27T11:59:55.031Z,5.7
2023-02-27T12:01:54.937Z,5.3
2023-02-27T12:03:57.512Z,7.2
2023-02-27T12:05:51.588Z,5.3
2023-02-27T12:07:54.307Z,5.5
2023-02-27T12:09:55.452Z,4.4
2023-02-27T12:11:49.704Z,4.8
2023-02-27T12:13:53.368Z,5.5
2023-02-27T12:15:53.907Z,7.4
2023-02-27T12:17:52.794Z,5.6
2023-02-27T12:20:03.697Z,5.1
2023-02-27T12:21:53.366Z,6.3
2023-02-27T12:23:53.215Z,5.7
2023-02-27T12:25:51.953Z,4.4
2023-02-27T12:27:54.195Z,5.6
2023-02-27T12:29:50.785Z,5.7
2023-02-27T12:31:52.228Z,5.7
2023-02-27T12:33:52.906Z,8.4
2023-02-27T12:35:56.530Z,4.9
2023-02-27T12:37:47.186Z,5.6
2023-02-27T12:39:46.958Z,6.5
2023-02-27T12:42:03.241Z,7
2023-02-27T12:43:55.383Z,5
2023-02-27T12:45:58.809Z,10.5
2023-02-27T12:47:54.810Z,12.2
2023-02-27T12:49:54.203Z,8.5
2023-02-27T12:51:54.243Z,31
2023-02-27T12:53:57.033Z,6.7
2023-02-27T12:55:53.923Z,6.5
2023-02-27T12:58:09.040Z,5.4
2023-02-27T12:59:55.948Z,5.3
2023-02-27T13:01:51.002Z,8.7
2023-02-27T13:03:55.905Z,6
2023-02-27T13:05:54.727Z,5.3
2023-02-27T13:07:53.695Z,6.7
2023-02-27T13:09:49.987Z,6.8
2023-02-27T13:11:55.542Z,7.7
2023-02-27T13:13:49.263Z,6.6
2023-02-27T13:15:50.133Z,8.4
2023-02-27T13:17:49.129Z,11
2023-02-27T13:19:49.947Z,7.7
2023-02-27T13:21:51.468Z,6.5
2023-02-27T13:23:55.219Z,6.8
2023-02-27T13:25:47.456Z,6.2
2023-02-27T13:27:46.925Z,6.6
2023-02-27T13:29:48.559Z,4.9
2023-02-27T13:31:52.355Z,6.3
2023-02-27T13:33:52.532Z,6.8
2023-02-27T13:35:51.806Z,6.4
2023-02-27T13:37:53.433Z,6.9
2023-02-27T13:39:55.505Z,8.3
2023-02-27T13:41:42.673Z,6.3
2023-02-27T13:43:51.707Z,7
2023-02-27T13:45:52.612Z,6
2023-02-27T13:47:48.581Z,6.8
2023-02-27T13:49:42.705Z,6
2023-02-27T13:51:46.009Z,10.1
2023-02-27T13:53:41.742Z,7.6
2023-02-27T13:55:41.515Z,7
2023-02-27T13:57:46.738Z,8.1
2023-02-27T13:59:49.889Z,7.3
2023-02-27T14:01:51.455Z,8.2
2023-02-27T14:03:41.350Z,6.3
2023-02-27T14:05:44.041Z,8.7
2023-02-27T14:07:54.926Z,7.5
2023-02-27T14:09:44.305Z,6.9
2023-02-27T14:11:51.229Z,8.9
2023-02-27T14:13:59.371Z,7.4
2023-02-27T14:15:55.965Z,8
2023-02-27T14:17:42.586Z,8.7
2023-02-27T14:19:52.000Z,7.4
2023-02-27T14:21:55.739Z,8.1
2023-02-27T14:23:38.917Z,8.5
2023-02-27T14:25:43.719Z,6.8
2023-02-27T14:27:48.759Z,8.8
2023-02-27T14:29:42.961Z,8.6
2023-02-27T14:31:43.361Z,10.8
2023-02-27T14:33:43.192Z,8.5
2023-02-27T14:35:38.508Z,9.2
2023-02-27T14:37:38.893Z,7.5
2023-02-27T14:39:39.792Z,9.2
2023-02-27T14:41:45.324Z,9
2023-02-27T14:43:42.772Z,12.4
2023-02-27T14:45:37.697Z,13
2023-02-27T14:47:38.190Z,9.7
2023-02-27T14:49:37.421Z,12
2023-02-27T14:51:37.782Z,9.9
2023-02-27T14:53:36.575Z,11.5
2023-02-27T14:55:37.833Z,9.6
2023-02-27T14:57:36.555Z,9.3
2023-02-27T14:59:43.180Z,13.3
2023-02-27T15:01:36.609Z,12
2023-02-27T15:03:45.645Z,7.6
2023-02-27T15:05:35.660Z,8.2
2023-02-27T15:07:35.559Z,6.6
2023-02-27T15:09:39.507Z,6.9
2023-02-27T15:11:41.118Z,6.6
2023-02-27T15:13:37.983Z,8.1
2023-02-27T15:15:34.498Z,7.3
2023-02-27T15:17:39.066Z,8.4
2023-02-27T15:19:33.766Z,10.3
2023-02-27T15:21:39.391Z,10.9
2023-02-27T15:23:33.594Z,7.9
2023-02-27T15:25:36.280Z,7.6
2023-02-27T15:27:35.707Z,8.5
2023-02-27T15:29:37.082Z,8.2
2023-02-27T15:31:33.619Z,7.8
2023-02-27T15:33:33.758Z,7.6
2023-02-27T15:35:37.231Z,6.2
2023-02-27T15:37:33.837Z,7.2
2023-02-27T15:39:32.887Z,7.9
2023-02-27T15:41:32.556Z,6.8
2023-02-27T15:43:32.661Z,9
2023-02-27T15:45:34.675Z,8.3
2023-02-27T15:47:34.065Z,5.5
2023-02-27T15:49:31.417Z,6.4
2023-02-27T15:51:31.306Z,5.7
2023-02-27T15:53:31.434Z,6.4
2023-02-27T15:55:34.240Z,4.4
2023-02-27T15:57:32.470Z,6.7
2023-02-27T15:59:35.913Z,6.6
2023-02-27T16:01:32.390Z,5.8
2023-02-27T16:03:35.078Z,8
2023-02-27T16:05:34.374Z,6.6
2023-02-27T16:07:39.281Z,4.9
2023-02-27T16:09:32.429Z,5.3
2023-02-27T16:11:31.426Z,7.1
2023-02-27T16:13:33.384Z,6.3
2023-02-27T16:15:31.189Z,5.1
2023-02-27T16:17:31.511Z,7.2
2023-02-27T16:19:31.270Z,5.5
2023-02-27T16:21:29.893Z,7
2023-02-27T16:23:29.564Z,5.4
2023-02-27T16:25:28.303Z,6.4
2023-02-27T16:27:29.287Z,6.2
2023-02-27T16:29:34.020Z,7.8
2023-02-27T16:31:30.606Z,4.9
2023-02-27T16:33:32.052Z,6.8
2023-02-27T16:35:28.881Z,5.8
2023-02-27T16:37:34.215Z,4.9
2023-02-27T16:39:27.000Z,5.2
2023-02-27T16:41:27.477Z,5.9
2023-02-27T16:43:26.413Z,6.5
2023-02-27T16:45:28.113Z,5.8
2023-02-27T16:47:25.796Z,6.4
2023-02-27T16:49:27.937Z,6.7
2023-02-27T16:51:30.301Z,6.8
2023-02-27T16:53:25.323Z,5.6
2023-02-27T16:55:25.789Z,6.4
2023-02-27T16:57:24.953Z,8.4
2023-02-27T16:59:29.443Z,6.8
2023-02-27T17:01:24.443Z,6.8
2023-02-27T17:03:24.506Z,6.5
2023-02-27T17:05:24.262Z,5.9
2023-02-27T17:07:23.766Z,6.4
2023-02-27T17:09:23.859Z,5.8
2023-02-27T17:11:23.144Z,5.5
2023-02-27T17:13:23.182Z,5.7
2023-02-27T17:15:23.320Z,6.9
2023-02-27T17:17:22.724Z,6.3
2023-02-27T17:19:22.252Z,7.3
2023-02-27T17:21:22.418Z,5.3
2023-02-27T17:23:22.065Z,7.3
2023-02-27T17:25:22.053Z,7.5
2023-02-27T17:27:21.574Z,7.5
2023-02-27T17:29:22.307Z,9.1
2023-02-27T17:31:20.992Z,6.3
2023-02-27T17:33:20.957Z,6.7
2023-02-27T17:35:20.848Z,8.1
2023-02-27T17:37:21.123Z,7.1
2023-02-27T17:39:20.433Z,7.7
2023-02-27T17:41:20.129Z,8
2023-02-27T17:43:20.254Z,6.8
2023-02-27T17:45:20.253Z,8.2
2023-02-27T17:47:19.424Z,8.2
2023-02-27T17:49:19.157Z,7
2023-02-27T17:51:19.309Z,7.4
2023-02-27T17:53:20.285Z,7.7
2023-02-27T17:55:18.543Z,6.8
2023-02-27T17:57:18.611Z,6.3
2023-02-27T17:59:18.274Z,5.9
2023-02-27T18:01:21.006Z,6.8
2023-02-27T18:03:17.743Z,7.1
2023-02-27T18:05:17.575Z,8.9
2023-02-27T18:07:17.004Z,7.5
2023-02-27T18:09:16.878Z,5.6
2023-02-27T18:11:19.159Z,6.5
2023-02-27T18:13:17.422Z,6.3
2023-02-27T18:15:16.084Z,8.3
2023-02-27T18:17:15.800Z,7.6
2023-02-27T18:19:15.960Z,7.3
2023-02-27T18:21:17.551Z,7.2
2023-02-27T18:23:15.325Z,5.4
2023-02-27T18:25:16.666Z,6
2023-02-27T18:27:14.344Z,6.7
2023-02-27T18:29:14.173Z,6.2
2023-02-27T18:31:23.465Z,6.6
2023-02-27T18:33:13.555Z,6.3
2023-02-27T18:35:13.495Z,6.4
2023-02-27T18:37:13.213Z,7
2023-02-27T18:39:13.256Z,7.4
2023-02-27T18:41:12.893Z,6.6
2023-02-27T18:43:13.915Z,6.9
2023-02-27T18:45:12.453Z,6.6
2023-02-27T18:47:11.731Z,6.4
2023-02-27T18:49:11.514Z,5.6
2023-02-27T18:51:14.112Z,5.7
2023-02-27T18:53:10.983Z,6.4
2023-02-27T18:55:10.947Z,9
2023-02-27T18:57:10.512Z,7
2023-02-27T18:59:10.830Z,7.2
2023-02-27T19:01:19.844Z,8
2023-02-27T19:03:09.914Z,7.6
2023-02-27T19:05:11.122Z,6.2
2023-02-27T19:07:09.298Z,8.2
2023-02-27T19:09:11.151Z,6.9
2023-02-27T19:11:08.802Z,5.3
2023-02-27T19:13:08.701Z,7.4
2023-02-27T19:15:10.059Z,7.1
2023-02-27T19:17:08.007Z,5.8
2023-02-27T19:19:09.844Z,6.1
2023-02-27T19:21:07.404Z,7.1
2023-02-27T19:23:07.172Z,6.8
2023-02-27T19:25:07.654Z,6.6
2023-02-27T19:27:06.681Z,5.9
2023-02-27T19:29:07.041Z,8.3
2023-02-27T19:31:07.482Z,6.8
2023-02-27T19:33:05.919Z,6.8
2023-02-27T19:35:06.564Z,6.6
2023-02-27T19:37:05.486Z,6.1
2023-02-27T19:39:05.111Z,6
2023-02-27T19:41:07.377Z,6.4
2023-02-27T19:43:04.634Z,8.5
2023-02-27T19:45:05.326Z,6.9
2023-02-27T19:47:04.190Z,7.9
2023-02-27T19:49:05.063Z,6.4
2023-02-27T19:51:04.351Z,7.4
2023-02-27T19:53:03.425Z,8.3
2023-02-27T19:55:03.964Z,6.9
2023-02-27T19:57:02.958Z,6.8
2023-02-27T19:59:02.710Z,7.9
2023-02-27T20:01:03.479Z,8.2
2023-02-27T20:03:01.981Z,8.3
2023-02-27T20:05:01.758Z,8.4
2023-02-27T20:07:01.471Z,7.6
2023-02-27T20:09:01.291Z,8.3
2023-02-27T20:11:03.274Z,8.6
2023-02-27T20:13:00.780Z,8.7
2023-02-27T20:15:00.530Z,8.8
2023-02-27T20:17:00.424Z,6.9
2023-02-27T20:19:00.017Z,7.1
2023-02-27T20:21:03.413Z,6.7
2023-02-27T20:22:59.487Z,8.3
2023-02-27T20:24:59.309Z,8.6
2023-02-27T20:26:59.340Z,7.7
2023-02-27T20:29:01.985Z,7.5
2023-02-27T20:30:58.408Z,8.2
2023-02-27T20:32:58.197Z,9.5
2023-02-27T20:34:58.204Z,7.3
2023-02-27T20:36:57.863Z,10.3
2023-02-27T20:38:57.498Z,9.5
2023-02-27T20:40:57.450Z,9.4
2023-02-27T20:42:56.953Z,10.7
2023-02-27T20:44:56.614Z,11.8
2023-02-27T20:46:56.327Z,9.9
2023-02-27T20:48:58.049Z,8.8
2023-02-27T20:50:55.865Z,8.3
2023-02-27T20:52:55.603Z,9.3
2023-02-27T20:54:55.364Z,9.4
2023-02-27T20:56:55.945Z,7.6
2023-02-27T20:58:54.886Z,8.3
2023-02-27T21:00:54.527Z,8.6
2023-02-27T21:02:54.437Z,8.6
2023-02-27T21:04:54.165Z,8.3
2023-02-27T21:06:53.689Z,7
2023-02-27T21:08:55.367Z,7.1
2023-02-27T21:10:53.240Z,8.5
2023-02-27T21:12:52.953Z,6.5
2023-02-27T21:14:52.667Z,8.8
2023-02-27T21:16:52.541Z,7.7
2023-02-27T21:18:53.241Z,8.4
2023-02-27T21:20:51.958Z,6.2
2023-02-27T21:22:51.654Z,7.1
2023-02-27T21:24:51.430Z,8.2
2023-02-27T21:26:51.113Z,10.7
2023-02-27T21:28:52.228Z,7.3
2023-02-27T21:30:50.672Z,9.7
2023-02-27T21:32:50.348Z,9.5
2023-02-27T21:34:50.203Z,8.1
2023-02-27T21:36:50.619Z,8.7
2023-02-27T21:38:49.570Z,8.7
2023-02-27T21:40:49.401Z,8
2023-02-27T21:42:49.121Z,8
2023-02-27T21:44:49.233Z,7.9
2023-02-27T21:46:48.483Z,7.4
2023-02-27T21:48:50.447Z,9.1
2023-02-27T21:50:48.040Z,7.3
2023-02-27T21:52:48.105Z,8.2
2023-02-27T21:54:47.516Z,8.6
2023-02-27T21:56:48.294Z,8.2
2023-02-27T21:58:46.989Z,7.2
2023-02-27T22:00:46.942Z,7.8
2023-02-27T22:02:46.496Z,9.8
2023-02-27T22:04:46.338Z,8
2023-02-27T22:06:46.124Z,9.1
2023-02-27T22:08:45.974Z,8.3
2023-02-27T22:10:45.510Z,10.6
2023-02-27T22:12:45.559Z,8.5
2023-02-27T22:14:44.868Z,8.1
2023-02-27T22:16:44.850Z,8.2
2023-02-27T22:18:44.486Z,9.7
2023-02-27T22:20:44.154Z,8.8
2023-02-27T22:22:43.835Z,7.6
2023-02-27T22:24:43.806Z,8
2023-02-27T22:26:43.321Z,9.8
2023-02-27T22:28:43.382Z,8.9
2023-02-27T22:30:42.839Z,8.4
2023-02-27T22:32:42.500Z,7.2
2023-02-27T22:34:42.263Z,8.9
2023-02-27T22:36:41.987Z,8.6
2023-02-27T22:38:42.256Z,8.3
2023-02-27T22:40:41.524Z,8.6
2023-02-27T22:42:41.298Z,8.4
2023-02-27T22:44:41.216Z,10.1
2023-02-27T22:46:43.505Z,9
2023-02-27T22:48:40.439Z,8
2023-02-27T22:50:40.128Z,10
2023-02-27T22:52:40.050Z,8.6
2023-02-27T22:54:39.582Z,10.5
2023-02-27T22:56:39.429Z,11.6
2023-02-27T22:58:40.038Z,8.3
2023-02-27T23:00:38.900Z,10
2023-02-27T23:02:40.325Z,9.4
2023-02-27T23:04:38.332Z,11.4
2023-02-27T23:06:39.544Z,9.4
2023-02-27T23:08:38.345Z,11.6
2023-02-27T23:10:37.534Z,9
2023-02-27T23:12:37.385Z,11.1
2023-02-27T23:14:36.982Z,11
2023-02-27T23:16:36.803Z,11.6
2023-02-27T23:18:37.086Z,13.3
2023-02-27T23:20:37.366Z,10.1
2023-02-27T23:22:35.869Z,11.6
2023-02-27T23:24:38.324Z,10.4
2023-02-27T23:26:35.532Z,10.8
2023-02-27T23:28:36.566Z,10.3
2023-02-27T23:30:35.325Z,12.4
2023-02-27T23:32:34.791Z,15.7
2023-02-27T23:34:48.624Z,11.3
2023-02-27T23:36:35.058Z,11.6
2023-02-27T23:38:33.759Z,11.3
2023-02-27T23:40:35.594Z,11.3
2023-02-27T23:42:33.177Z,10
2023-02-27T23:44:32.905Z,10.7
2023-02-27T23:46:32.703Z,12.1
2023-02-27T23:48:32.461Z,11.7
2023-02-27T23:50:34.296Z,10.1
2023-02-27T23:52:31.940Z,10.5
2023-02-27T23:54:31.722Z,8.9
2023-02-27T23:56:31.449Z,10.3
2023-02-27T23:58:31.186Z,10.9
